| time (UTC) | temp F | wind direction | speed knots | gust knots | rain 1hr in | rain 24hr in | rain mn in | humidity % | barometer mb |
| 20260504040040 | 42 | 119 | 0.0 | 0.0 | 0.00 | 0.00 | 0.00 | 82 | 1004.4 |
| 20260504034540 | 43 | 119 | 0.0 | 0.0 | 0.00 | 0.00 | 0.00 | 82 | 1004.1 |
| 20260504033040 | 43 | 120 | 0.0 | 0.0 | 0.00 | 0.00 | 0.00 | 80 | 1004.1 |
| 20260504031539 | 44 | 120 | 0.0 | 0.0 | 0.00 | 0.00 | 0.00 | 79 | 1004.2 |
| 20260504030042 | 45 | 119 | 0.0 | 0.0 | 0.00 | 0.00 | 0.00 | 77 | 1004.1 |
| 20260504024538 | 46 | 120 | 0.0 | 0.0 | 0.00 | 0.00 | 0.00 | 75 | 1004.2 |
| 20260504023038 | 48 | 120 | 0.0 | 0.0 | 0.00 | 0.00 | 0.00 | 73 | 1004.1 |
| 20260504021538 | 49 | 120 | 0.0 | 0.0 | 0.00 | 0.00 | 0.00 | 68 | 1003.8 |
| 20260504020036 | 50 | 120 | 0.0 | 0.0 | 0.00 | 0.00 | 0.00 | 67 | 1003.8 |
| 20260504014549 | 50 | 120 | 0.0 | 0.0 | 0.00 | 0.00 | 0.00 | 64 | 1003.5 |
| 20260504013041 | 51 | 119 | 0.0 | 0.0 | 0.00 | 0.00 | 0.00 | 60 | 1003.5 |
| 20260504011536 | 52 | 120 | 0.0 | 0.0 | 0.00 | 0.00 | 0.00 | 61 | 1003.3 |
| 20260504010034 | 53 | 120 | 0.0 | 0.0 | 0.00 | 0.00 | 0.00 | 58 | 1003.2 |
| 20260504004535 | 55 | 120 | 0.0 | 0.0 | 0.00 | 0.00 | 0.00 | 55 | 1002.9 |
| 20260504003034 | 56 | 120 | 0.0 | 0.0 | 0.00 | 0.00 | 0.00 | 48 | 1002.8 |
| 20260504001542 | 59 | 120 | 0.0 | 0.0 | 0.00 | 0.00 | 0.00 | 43 | 1002.8 |
| 20260504000041 | 60 | 120 | 0.0 | 0.9 | 0.00 | 0.00 | 0.00 | 37 | 1002.7 |
| 20260503234533 | 61 | 120 | 0.0 | 1.7 | 0.00 | 0.00 | 0.00 | 35 | 1002.5 |
| 20260503233032 | 62 | 120 | 0.0 | 0.0 | 0.00 | 0.00 | 0.00 | 33 | 1002.4 |
| 20260503231536 | 63 | 120 | 0.0 | 0.9 | 0.00 | 0.00 | 0.00 | 33 | 1002.3 |
| 20260503230032 | 63 | 119 | 0.0 | 0.0 | 0.00 | 0.00 | 0.00 | 33 | 1002.3 |
| 20260503224537 | 64 | 119 | 0.0 | 2.6 | 0.00 | 0.00 | 0.00 | 30 | 1002.3 |
| 20260503223030 | 64 | 293 | 0.0 | 4.3 | 0.00 | 0.00 | 0.00 | 32 | 1002.2 |
| 20260503221532 | 65 | 279 | 0.0 | 3.5 | 0.00 | 0.00 | 0.00 | 32 | 1002.2 |
| 20260503220029 | 66 | 319 | 0.0 | 2.6 | 0.00 | 0.00 | 0.00 | 30 | 1002.3 |
| 20260503214532 | 66 | 138 | 0.0 | 1.7 | 0.00 | 0.00 | 0.00 | 32 | 1002.2 |
| 20260503213032 | 67 | 119 | 0.0 | 4.3 | 0.00 | 0.00 | 0.00 | 34 | 1002.3 |
| 20260503211524 | 66 | 255 | 0.0 | 3.5 | 0.00 | 0.00 | 0.00 | 37 | 1002.5 |
| 20260503210038 | 65 | 326 | 0.0 | 3.5 | 0.00 | 0.00 | 0.00 | 43 | 1002.6 |
| 20260503204520 | 65 | 46 | 1.7 | 7.0 | 0.00 | 0.00 | 0.00 | 41 | 1002.7 |
| 20260503203019 | 64 | 355 | 0.0 | 7.0 | 0.00 | 0.00 | 0.00 | 42 | 1002.9 |
| 20260503201522 | 64 | 328 | 0.0 | 6.1 | 0.00 | 0.00 | 0.00 | 39 | 1003.1 |
| 20260503200018 | 64 | 167 | 1.7 | 6.1 | 0.00 | 0.00 | 0.00 | 40 | 1003.4 |
| 20260503194516 | 63 | 351 | 0.0 | 6.1 | 0.00 | 0.00 | 0.00 | 41 | 1003.7 |
| 20260503193016 | 64 | 97 | 0.9 | 6.1 | 0.00 | 0.00 | 0.00 | 44 | 1003.9 |
| 20260503191515 | 64 | 126 | 1.7 | 4.3 | 0.00 | 0.00 | 0.00 | 40 | 1004.2 |
| 20260503190013 | 63 | 263 | 0.0 | 4.3 | 0.00 | 0.00 | 0.00 | 42 | 1004.5 |
| 20260503184515 | 63 | 155 | 0.0 | 4.3 | 0.00 | 0.00 | 0.00 | 43 | 1004.5 |
| 20260503183010 | 63 | 164 | 1.7 | 4.3 | 0.00 | 0.00 | 0.00 | 44 | 1004.7 |
| 20260503181507 | 61 | 117 | 0.9 | 2.6 | 0.00 | 0.00 | 0.00 | 44 | 1004.9 |
| 20260503180005 | 60 | 44 | 0.9 | 4.3 | 0.00 | 0.00 | 0.00 | 43 | 1005.0 |
| 20260503174503 | 61 | 304 | 0.9 | 4.3 | 0.00 | 0.00 | 0.00 | 41 | 1005.2 |
| 20260503173002 | 60 | 321 | 1.7 | 5.2 | 0.00 | 0.00 | 0.00 | 42 | 1005.4 |
| 20260503171600 | 59 | 295 | 0.0 | 2.6 | 0.00 | 0.00 | 0.00 | 50 | 1005.7 |
| 20260503130108 | 44 | 33 | 0.0 | 0.9 | 0.00 | 0.00 | 0.00 | 87 | 1006.9 |
| 20260503081505 | 35 | 34 | 0.0 | 0.0 | 0.00 | 0.00 | 0.00 | 93 | 1003.8 |
| 20260503071554 | 37 | 34 | 0.0 | 0.0 | 0.00 | 0.00 | 0.00 | 92 | 1003.3 |
| 20260503054540 | 41 | 34 | 0.0 | 0.0 | 0.00 | 0.00 | 0.00 | 86 | 1002.9 |
| 20260503053039 | 41 | 34 | 0.0 | 0.0 | 0.00 | 0.00 | 0.00 | 86 | 1003.0 |
| 20260503051538 | 41 | 34 | 0.0 | 0.0 | 0.00 | 0.00 | 0.00 | 85 | 1003.2 |
| 20260503050038 | 41 | 34 | 0.0 | 0.0 | 0.00 | 0.00 | 0.00 | 85 | 1003.1 |
| 20260503044541 | 41 | 34 | 0.0 | 0.9 | 0.00 | 0.00 | 0.00 | 85 | 1002.9 |
| 20260503043034 | 41 | 34 | 0.0 | 0.0 | 0.00 | 0.00 | 0.00 | 84 | 1002.8 |
| 20260503041538 | 41 | 34 | 0.0 | 0.0 | 0.00 | 0.00 | 0.00 | 84 | 1002.7 |